Yamato — JD2252 — position and weather

sailwx.info

Track history (hours):
 
Tides and Currents Weather Stations Pressure Air Temp Water Temp Dewpoint Dewpoint Depression Visibility Wind Speed Wind Dir Waves Ship Positions

Yamato

Last reported at 2016-Feb-08 01:33 UTC. Time now 2016-Feb-08 01:56 UTC.
Position N 35°29' E 139°44'.

Length 40 m; draft 3.6 m.

Type: Tug. MMSI: 431101141.

Date/timePositionNaut miles runAvg speedWind from/ knotsBaromVisibWave heightAir tempDewpointWater temp
2016-Feb-08 01:33N 35°29' E 139°44'0 0.3
2016-Feb-08 00:33N 35°29' E 139°45'2 1.8
2016-Feb-07 23:33N 35°27' E 139°46'2 2.1
2016-Feb-07 22:33N 35°29' E 139°44'4 4.2
2016-Feb-07 21:33N 35°27' E 139°40'0 0.0
2016-Feb-06 00:16N 35°27' E 139°40'2 3.5
2016-Feb-05 23:33N 35°28' E 139°42'1 1.2
2016-Feb-05 22:33N 35°27' E 139°42'1 1.5
2016-Feb-05 21:33N 35°26' E 139°41'1 1.3
2016-Feb-05 20:33N 35°27' E 139°42'0 0.0
2016-Feb-05 19:33N 35°27' E 139°42'0 0.0
2016-Feb-05 18:33N 35°27' E 139°42'0 0.0
2016-Feb-05 17:33N 35°27' E 139°42'0 0.0
2016-Feb-05 16:33N 35°27' E 139°42'0 0.5
2016-Feb-05 15:33N 35°26' E 139°42'2 2.2
2016-Feb-05 14:33N 35°27' E 139°39'0 0.0
2016-Feb-05 13:33N 35°27' E 139°39'0 0.0
2016-Feb-05 12:33N 35°27' E 139°39'1 0.9
2016-Feb-05 11:33N 35°27' E 139°40'2 2.4
2016-Feb-05 10:33N 35°26' E 139°43'1 1.3
2016-Feb-05 09:33N 35°26' E 139°42'0 0.0
2016-Feb-05 08:33N 35°26' E 139°42'1 1.0
2016-Feb-05 07:33N 35°25' E 139°41'3 2.5
2016-Feb-05 06:33N 35°27' E 139°39'0 0.0
2016-Feb-05 05:33N 35°27' E 139°39'1 1.1
2016-Feb-05 04:33N 35°27' E 139°40'2 1.6
2016-Feb-05 03:33N 35°29' E 139°39'1 1.2
2016-Feb-05 02:34N 35°27' E 139°39'0 0.0
2016-Feb-05 01:34N 35°27' E 139°39'0 0.0
2016-Feb-05 00:33N 35°27' E 139°39'0 0.0
2016-Feb-04 23:33N 35°27' E 139°39'0 0.0
2016-Feb-04 22:33N 35°27' E 139°39'0 0.0
2016-Feb-04 21:33N 35°27' E 139°39'0 0.0
2016-Feb-04 20:33N 35°27' E 139°39'0 0.0
2016-Feb-04 19:33N 35°27' E 139°39'0 0.0
2016-Feb-04 18:33N 35°27' E 139°39'0 0.0
2016-Feb-04 17:33N 35°27' E 139°39'0 0.0
2016-Feb-04 16:33N 35°27' E 139°39'0 0.0
2016-Feb-04 15:34N 35°27' E 139°39'0 0.0
2016-Feb-04 14:33N 35°27' E 139°39'0 0.0
2016-Feb-04 13:33N 35°27' E 139°39'0 0.0
2016-Feb-04 12:34N 35°27' E 139°39'0 0.0
2016-Feb-04 11:33N 35°27' E 139°39'0 0.0
2016-Feb-04 10:33N 35°27' E 139°39'0 0.0
2016-Feb-04 09:34N 35°27' E 139°39'0 0.0
2016-Feb-04 08:33N 35°27' E 139°39'0 0.0
2016-Feb-04 07:34N 35°27' E 139°39'0 0.0
2016-Feb-04 06:34N 35°27' E 139°39'0 0.0
2016-Feb-04 05:33N 35°27' E 139°39'0 0.0
2016-Feb-04 04:33N 35°27' E 139°39'0 0.0
2016-Feb-04 03:34N 35°27' E 139°39'0 0.0
2016-Feb-04 02:33N 35°27' E 139°39'4 3.6
2016-Feb-04 01:33N 35°29' E 139°42'3 3.5
2016-Feb-04 00:33N 35°31' E 139°46'1 0.6
2016-Feb-03 23:33N 35°30' E 139°46'1 0.8
2016-Feb-03 22:33N 35°30' E 139°45'3 3.3
2016-Feb-03 21:33N 35°28' E 139°41'3 2.6
2016-Feb-03 20:34N 35°27' E 139°39'0 0.0
2016-Feb-03 08:23N 35°27' E 139°39'2 2.5
2016-Feb-03 07:34N 35°26' E 139°41'1 1.3
2016-Feb-03 06:34N 35°28' E 139°40'0 0.0
2016-Feb-03 05:33N 35°28' E 139°40'0 0.0
2016-Feb-03 04:34N 35°28' E 139°40'0 0.1
2016-Feb-03 03:33N 35°28' E 139°40'1 1.1
2016-Feb-03 02:33N 35°28' E 139°39'0 0.4
2016-Feb-03 01:33N 35°27' E 139°39'0 0.0
2016-Feb-03 00:33N 35°27' E 139°39'0 0.0
2016-Feb-02 23:33N 35°27' E 139°39'0 0.0
2016-Feb-02 22:33N 35°27' E 139°39'0 0.0
2016-Feb-02 21:33N 35°27' E 139°39'0 0.0
2016-Feb-02 20:33N 35°27' E 139°39'0 0.0
2016-Feb-02 19:33N 35°27' E 139°39'0 0.0
2016-Feb-02 18:33N 35°27' E 139°39'0 0.0
2016-Feb-02 17:33N 35°27' E 139°39'0 0.0
2016-Feb-02 16:33N 35°27' E 139°39'0 0.0
2016-Feb-02 15:33N 35°27' E 139°39'0 0.0
2016-Feb-02 14:33N 35°27' E 139°39'0 0.0
2016-Feb-02 13:33N 35°27' E 139°39'0 0.0
2016-Feb-02 12:33N 35°27' E 139°39'0 0.0
2016-Feb-02 11:33N 35°27' E 139°39'0 0.0
2016-Feb-02 10:33N 35°27' E 139°39'0 0.0
2016-Feb-02 09:33N 35°27' E 139°39'0 0.0
2016-Feb-02 08:33N 35°27' E 139°39'0 0.0
2016-Feb-02 07:33N 35°27' E 139°39'0 0.0
2016-Feb-02 06:33N 35°27' E 139°39'2 1.6
2016-Feb-02 05:33N 35°27' E 139°40'1 1.3
2016-Feb-02 04:33N 35°27' E 139°42'1 0.7
2016-Feb-02 03:33N 35°27' E 139°41'1 1.0
2016-Feb-02 02:33N 35°26' E 139°42'3 3.0
2016-Feb-02 01:33N 35°27' E 139°39'0 0.0
2016-Feb-02 00:33N 35°27' E 139°39'0 0.0
2016-Feb-01 23:33N 35°27' E 139°39'0 0.0
2016-Feb-01 22:33N 35°27' E 139°39'0 0.0
2016-Feb-01 21:33N 35°27' E 139°39'0 0.0
2016-Feb-01 20:33N 35°27' E 139°39'0 0.0
2016-Feb-01 19:33N 35°27' E 139°39'0 0.0
2016-Feb-01 18:33N 35°27' E 139°39'0 0.0
2016-Feb-01 17:33N 35°27' E 139°39'0 0.0
2016-Feb-01 16:33N 35°27' E 139°39'0 0.0
2016-Feb-01 15:33N 35°27' E 139°39'0 0.0
2016-Feb-01 14:33N 35°27' E 139°39'0 0.0
2016-Feb-01 13:33N 35°27' E 139°39'0 0.0
2016-Feb-01 12:33N 35°27' E 139°39'0 0.0
2016-Feb-01 11:33N 35°27' E 139°39'0 0.0
2016-Feb-01 10:33N 35°27' E 139°39'0 0.0
2016-Feb-01 09:33N 35°27' E 139°39'1 1.1
2016-Feb-01 08:33N 35°27' E 139°40'5 4.9
2016-Feb-01 07:33N 35°29' E 139°45'2 1.7
2016-Feb-01 06:33N 35°28' E 139°44'2 2.2
2016-Feb-01 05:33N 35°26' E 139°43'1 0.8
2016-Feb-01 04:33N 35°27' E 139°42'0 0.0
2016-Feb-01 03:33N 35°27' E 139°42'0 0.0
2016-Feb-01 02:33N 35°27' E 139°42'0 0.0
2016-Feb-01 01:33N 35°27' E 139°42'2 1.9
2016-Feb-01 00:33N 35°27' E 139°40'0 0.0
2016-Jan-30 23:33N 35°27' E 139°40'2 1.8
2016-Jan-30 22:33N 35°27' E 139°42'0 0.4
2016-Jan-30 21:33N 35°27' E 139°42'0 0.0
2016-Jan-30 20:33N 35°27' E 139°42'0 0.0
2016-Jan-30 19:33N 35°27' E 139°42'0 0.0
2016-Jan-30 18:33N 35°27' E 139°42'0 0.0
2016-Jan-30 17:33N 35°27' E 139°42'1 1.5
2016-Jan-30 16:34N 35°27' E 139°40'2 1.6
2016-Jan-30 15:33N 35°27' E 139°42'0 0.0
2016-Jan-30 14:33N 35°27' E 139°42'1 0.7
2016-Jan-30 13:33N 35°28' E 139°42'3 2.8
2016-Jan-30 12:33N 35°27' E 139°45'2 2.4
2016-Jan-30 11:33N 35°27' E 139°42'1 0.7
2016-Jan-30 10:33N 35°27' E 139°41'2 2.1
2016-Jan-30 09:34N 35°26' E 139°44'4 3.5
2016-Jan-30 08:33N 35°27' E 139°39'0 0.0
2016-Jan-30 07:33N 35°27' E 139°39'0 0.3
2016-Jan-30 06:33N 35°27' E 139°40'3 3.2
2016-Jan-30 05:33N 35°29' E 139°43'2 1.9
2016-Jan-30 04:33N 35°27' E 139°42'1 0.7
2016-Jan-30 03:33N 35°28' E 139°43'3 2.7
2016-Jan-30 02:33N 35°27' E 139°40'0 0.0
2016-Jan-30 01:33N 35°27' E 139°40'0 0.0
2016-Jan-30 00:33N 35°27' E 139°40'0 0.0
2016-Jan-29 23:33N 35°27' E 139°40'0 0.0
2016-Jan-29 22:33N 35°27' E 139°40'0 0.0
2016-Jan-29 21:33N 35°27' E 139°40'0 0.0
2016-Jan-29 20:33N 35°27' E 139°40'0 0.0
2016-Jan-29 19:33N 35°27' E 139°40'0 0.0
2016-Jan-29 18:33N 35°27' E 139°40'0 0.0
2016-Jan-29 17:33N 35°27' E 139°40'0 0.0
2016-Jan-29 16:33N 35°27' E 139°40'0 0.0
2016-Jan-29 15:33N 35°27' E 139°40'0 0.0
2016-Jan-29 14:33N 35°27' E 139°40'0 0.0
2016-Jan-29 13:33N 35°27' E 139°40'0 0.0
2016-Jan-29 12:33N 35°27' E 139°40'0 0.0
2016-Jan-29 11:34N 35°27' E 139°40'0 0.0
2016-Jan-29 10:34N 35°27' E 139°40'0 0.0
2016-Jan-29 09:34N 35°27' E 139°40'0 0.0
2016-Jan-29 08:34N 35°27' E 139°40'0 0.0
2016-Jan-29 07:34N 35°27' E 139°40'0 0.0
2016-Jan-29 06:34N 35°27' E 139°40'1 1.0
2016-Jan-29 05:33N 35°27' E 139°41'1 1.0
2016-Jan-29 04:34N 35°27' E 139°40'0 0.0
2016-Jan-29 03:34N 35°27' E 139°40'0 0.0
2016-Jan-29 02:34N 35°27' E 139°40'0 0.0
2016-Jan-29 01:34N 35°27' E 139°40'  
Track history (hours):
 
Tides and Currents Weather Stations Pressure Air Temp Water Temp Dewpoint Dewpoint Depression Visibility Wind Speed Wind Dir Waves Ship Positions

Yamato

Last reported at 2016-Feb-08 01:33 UTC. Time now 2016-Feb-08 01:56 UTC.
Position N 35°29' E 139°44'.

Length 40 m; draft 3.6 m.

Type: Tug. MMSI: 431101141.

Date/timePositionNaut miles runAvg speedWind from/ knotsBaromVisibWave heightAir tempDewpointWater temp
2016-Feb-08 01:33N 35°29' E 139°44'0 0.3
2016-Feb-08 00:33N 35°29' E 139°45'2 1.8
2016-Feb-07 23:33N 35°27' E 139°46'2 2.1
2016-Feb-07 22:33N 35°29' E 139°44'4 4.2
2016-Feb-07 21:33N 35°27' E 139°40'0 0.0
2016-Feb-06 00:16N 35°27' E 139°40'2 3.5
2016-Feb-05 23:33N 35°28' E 139°42'1 1.2
2016-Feb-05 22:33N 35°27' E 139°42'1 1.5
2016-Feb-05 21:33N 35°26' E 139°41'1 1.3
2016-Feb-05 20:33N 35°27' E 139°42'0 0.0
2016-Feb-05 19:33N 35°27' E 139°42'0 0.0
2016-Feb-05 18:33N 35°27' E 139°42'0 0.0
2016-Feb-05 17:33N 35°27' E 139°42'0 0.0
2016-Feb-05 16:33N 35°27' E 139°42'0 0.5
2016-Feb-05 15:33N 35°26' E 139°42'2 2.2
2016-Feb-05 14:33N 35°27' E 139°39'0 0.0
2016-Feb-05 13:33N 35°27' E 139°39'0 0.0
2016-Feb-05 12:33N 35°27' E 139°39'1 0.9
2016-Feb-05 11:33N 35°27' E 139°40'2 2.4
2016-Feb-05 10:33N 35°26' E 139°43'1 1.3
2016-Feb-05 09:33N 35°26' E 139°42'0 0.0
2016-Feb-05 08:33N 35°26' E 139°42'1 1.0
2016-Feb-05 07:33N 35°25' E 139°41'3 2.5
2016-Feb-05 06:33N 35°27' E 139°39'0 0.0
2016-Feb-05 05:33N 35°27' E 139°39'1 1.1
2016-Feb-05 04:33N 35°27' E 139°40'2 1.6
2016-Feb-05 03:33N 35°29' E 139°39'1 1.2
2016-Feb-05 02:34N 35°27' E 139°39'0 0.0
2016-Feb-05 01:34N 35°27' E 139°39'0 0.0
2016-Feb-05 00:33N 35°27' E 139°39'0 0.0
2016-Feb-04 23:33N 35°27' E 139°39'0 0.0
2016-Feb-04 22:33N 35°27' E 139°39'0 0.0
2016-Feb-04 21:33N 35°27' E 139°39'0 0.0
2016-Feb-04 20:33N 35°27' E 139°39'0 0.0
2016-Feb-04 19:33N 35°27' E 139°39'0 0.0
2016-Feb-04 18:33N 35°27' E 139°39'0 0.0
2016-Feb-04 17:33N 35°27' E 139°39'0 0.0
2016-Feb-04 16:33N 35°27' E 139°39'0 0.0
2016-Feb-04 15:34N 35°27' E 139°39'0 0.0
2016-Feb-04 14:33N 35°27' E 139°39'0 0.0
2016-Feb-04 13:33N 35°27' E 139°39'0 0.0
2016-Feb-04 12:34N 35°27' E 139°39'0 0.0
2016-Feb-04 11:33N 35°27' E 139°39'0 0.0
2016-Feb-04 10:33N 35°27' E 139°39'0 0.0
2016-Feb-04 09:34N 35°27' E 139°39'0 0.0
2016-Feb-04 08:33N 35°27' E 139°39'0 0.0
2016-Feb-04 07:34N 35°27' E 139°39'0 0.0
2016-Feb-04 06:34N 35°27' E 139°39'0 0.0
2016-Feb-04 05:33N 35°27' E 139°39'0 0.0
2016-Feb-04 04:33N 35°27' E 139°39'0 0.0
2016-Feb-04 03:34N 35°27' E 139°39'0 0.0
2016-Feb-04 02:33N 35°27' E 139°39'4 3.6
2016-Feb-04 01:33N 35°29' E 139°42'3 3.5
2016-Feb-04 00:33N 35°31' E 139°46'1 0.6
2016-Feb-03 23:33N 35°30' E 139°46'1 0.8
2016-Feb-03 22:33N 35°30' E 139°45'3 3.3
2016-Feb-03 21:33N 35°28' E 139°41'3 2.6
2016-Feb-03 20:34N 35°27' E 139°39'0 0.0
2016-Feb-03 08:23N 35°27' E 139°39'2 2.5
2016-Feb-03 07:34N 35°26' E 139°41'1 1.3
2016-Feb-03 06:34N 35°28' E 139°40'0 0.0
2016-Feb-03 05:33N 35°28' E 139°40'0 0.0
2016-Feb-03 04:34N 35°28' E 139°40'0 0.1
2016-Feb-03 03:33N 35°28' E 139°40'1 1.1
2016-Feb-03 02:33N 35°28' E 139°39'0 0.4
2016-Feb-03 01:33N 35°27' E 139°39'0 0.0
2016-Feb-03 00:33N 35°27' E 139°39'0 0.0
2016-Feb-02 23:33N 35°27' E 139°39'0 0.0
2016-Feb-02 22:33N 35°27' E 139°39'0 0.0
2016-Feb-02 21:33N 35°27' E 139°39'0 0.0
2016-Feb-02 20:33N 35°27' E 139°39'0 0.0
2016-Feb-02 19:33N 35°27' E 139°39'0 0.0
2016-Feb-02 18:33N 35°27' E 139°39'0 0.0
2016-Feb-02 17:33N 35°27' E 139°39'0 0.0
2016-Feb-02 16:33N 35°27' E 139°39'0 0.0
2016-Feb-02 15:33N 35°27' E 139°39'0 0.0
2016-Feb-02 14:33N 35°27' E 139°39'0 0.0
2016-Feb-02 13:33N 35°27' E 139°39'0 0.0
2016-Feb-02 12:33N 35°27' E 139°39'0 0.0
2016-Feb-02 11:33N 35°27' E 139°39'0 0.0
2016-Feb-02 10:33N 35°27' E 139°39'0 0.0
2016-Feb-02 09:33N 35°27' E 139°39'0 0.0
2016-Feb-02 08:33N 35°27' E 139°39'0 0.0
2016-Feb-02 07:33N 35°27' E 139°39'0 0.0
2016-Feb-02 06:33N 35°27' E 139°39'2 1.6
2016-Feb-02 05:33N 35°27' E 139°40'1 1.3
2016-Feb-02 04:33N 35°27' E 139°42'1 0.7
2016-Feb-02 03:33N 35°27' E 139°41'1 1.0
2016-Feb-02 02:33N 35°26' E 139°42'3 3.0
2016-Feb-02 01:33N 35°27' E 139°39'0 0.0
2016-Feb-02 00:33N 35°27' E 139°39'0 0.0
2016-Feb-01 23:33N 35°27' E 139°39'0 0.0
2016-Feb-01 22:33N 35°27' E 139°39'0 0.0
2016-Feb-01 21:33N 35°27' E 139°39'0 0.0
2016-Feb-01 20:33N 35°27' E 139°39'0 0.0
2016-Feb-01 19:33N 35°27' E 139°39'0 0.0
2016-Feb-01 18:33N 35°27' E 139°39'0 0.0
2016-Feb-01 17:33N 35°27' E 139°39'0 0.0
2016-Feb-01 16:33N 35°27' E 139°39'0 0.0
2016-Feb-01 15:33N 35°27' E 139°39'0 0.0
2016-Feb-01 14:33N 35°27' E 139°39'0 0.0
2016-Feb-01 13:33N 35°27' E 139°39'0 0.0
2016-Feb-01 12:33N 35°27' E 139°39'0 0.0
2016-Feb-01 11:33N 35°27' E 139°39'0 0.0
2016-Feb-01 10:33N 35°27' E 139°39'0 0.0
2016-Feb-01 09:33N 35°27' E 139°39'1 1.1
2016-Feb-01 08:33N 35°27' E 139°40'5 4.9
2016-Feb-01 07:33N 35°29' E 139°45'2 1.7
2016-Feb-01 06:33N 35°28' E 139°44'2 2.2
2016-Feb-01 05:33N 35°26' E 139°43'1 0.8
2016-Feb-01 04:33N 35°27' E 139°42'0 0.0
2016-Feb-01 03:33N 35°27' E 139°42'0 0.0
2016-Feb-01 02:33N 35°27' E 139°42'0 0.0
2016-Feb-01 01:33N 35°27' E 139°42'2 1.9
2016-Feb-01 00:33N 35°27' E 139°40'0 0.0
2016-Jan-30 23:33N 35°27' E 139°40'2 1.8
2016-Jan-30 22:33N 35°27' E 139°42'0 0.4
2016-Jan-30 21:33N 35°27' E 139°42'0 0.0
2016-Jan-30 20:33N 35°27' E 139°42'0 0.0
2016-Jan-30 19:33N 35°27' E 139°42'0 0.0
2016-Jan-30 18:33N 35°27' E 139°42'0 0.0
2016-Jan-30 17:33N 35°27' E 139°42'1 1.5
2016-Jan-30 16:34N 35°27' E 139°40'2 1.6
2016-Jan-30 15:33N 35°27' E 139°42'0 0.0
2016-Jan-30 14:33N 35°27' E 139°42'1 0.7
2016-Jan-30 13:33N 35°28' E 139°42'3 2.8
2016-Jan-30 12:33N 35°27' E 139°45'2 2.4
2016-Jan-30 11:33N 35°27' E 139°42'1 0.7
2016-Jan-30 10:33N 35°27' E 139°41'2 2.1
2016-Jan-30 09:34N 35°26' E 139°44'4 3.5
2016-Jan-30 08:33N 35°27' E 139°39'0 0.0
2016-Jan-30 07:33N 35°27' E 139°39'0 0.3
2016-Jan-30 06:33N 35°27' E 139°40'3 3.2
2016-Jan-30 05:33N 35°29' E 139°43'2 1.9
2016-Jan-30 04:33N 35°27' E 139°42'1 0.7
2016-Jan-30 03:33N 35°28' E 139°43'3 2.7
2016-Jan-30 02:33N 35°27' E 139°40'0 0.0
2016-Jan-30 01:33N 35°27' E 139°40'0 0.0
2016-Jan-30 00:33N 35°27' E 139°40'0 0.0
2016-Jan-29 23:33N 35°27' E 139°40'0 0.0
2016-Jan-29 22:33N 35°27' E 139°40'0 0.0
2016-Jan-29 21:33N 35°27' E 139°40'0 0.0
2016-Jan-29 20:33N 35°27' E 139°40'0 0.0
2016-Jan-29 19:33N 35°27' E 139°40'0 0.0
2016-Jan-29 18:33N 35°27' E 139°40'0 0.0
2016-Jan-29 17:33N 35°27' E 139°40'0 0.0
2016-Jan-29 16:33N 35°27' E 139°40'0 0.0
2016-Jan-29 15:33N 35°27' E 139°40'0 0.0
2016-Jan-29 14:33N 35°27' E 139°40'0 0.0
2016-Jan-29 13:33N 35°27' E 139°40'0 0.0
2016-Jan-29 12:33N 35°27' E 139°40'0 0.0
2016-Jan-29 11:34N 35°27' E 139°40'0 0.0
2016-Jan-29 10:34N 35°27' E 139°40'0 0.0
2016-Jan-29 09:34N 35°27' E 139°40'0 0.0
2016-Jan-29 08:34N 35°27' E 139°40'0 0.0
2016-Jan-29 07:34N 35°27' E 139°40'0 0.0
2016-Jan-29 06:34N 35°27' E 139°40'1 1.0
2016-Jan-29 05:33N 35°27' E 139°41'1 1.0
2016-Jan-29 04:34N 35°27' E 139°40'0 0.0
2016-Jan-29 03:34N 35°27' E 139°40'0 0.0
2016-Jan-29 02:34N 35°27' E 139°40'0 0.0
2016-Jan-29 01:34N 35°27' E 139°40'  

Dump ship's entire track history